EFVA

Vaasa Airport

Vaasa, Finland
TAF EFVA 210836Z 2109/2209 29009KT CAVOK TEMPO 2200/2207 3000 BR BKN002
Issued Valid From Valid To
Apr-21 @ 08:36 UTC
(an hour ago)
Apr-21 @ 09:00 UTC
(48 minutes ago)
Apr-22 @ 09:00 UTC
(in 23 hours)
Apr-21 @ 09:00 to Apr-22 @ 09:00
TAF EFVA 210836Z 2109/2209 29009KT CAVOK
Wind Visibility Clouds Conditions
290° at 9 knots 10,000+ meters
  • No significant clouds
Temporary Apr-22 @ 00:00 to Apr-22 @ 07:00
TEMPO 2200/2207 3000 BR BKN002
Visibility Clouds Conditions
2,993 meters
  • Broken at 200' AGL
  • Mist
TAF EFVA 210836Z 2109/2209 29009KT CAVOK TEMPO 2200/2207 3000 BR BKN002
Issued Apr-21 @ 08:36 UTC
(an hour ago)
Valid From Apr-21 @ 09:00 UTC
(48 minutes ago)
Valid To Apr-22 @ 09:00 UTC
(in 23 hours)
Apr-21 @ 09:00 - Apr-22 @ 09:00
Wind Visibility
290° at 9 knots 10,000+ meters
Clouds
  • No significant clouds
Conditions
Temporary Apr-22 @ 00:00 - Apr-22 @ 07:00
Clouds
  • Broken at 200' AGL
Conditions
  • Mist